sensor_id;sensor_type;location;lat;lon;timestamp;pressure;altitude;pressure_sealevel;temperature;humidity
42111;BME280;27766;52.174;5.456;2022-08-19T00:01:57;101279.19;;;16.91;100.00
42111;BME280;27766;52.174;5.456;2022-08-19T00:04:32;101269.63;;;16.86;100.00
42111;BME280;27766;52.174;5.456;2022-08-19T00:07:00;101273.97;;;16.84;100.00
42111;BME280;27766;52.174;5.456;2022-08-19T00:09:28;101280.94;;;16.83;100.00
42111;BME280;27766;52.174;5.456;2022-08-19T00:11:57;101281.81;;;16.82;100.00
42111;BME280;27766;52.174;5.456;2022-08-19T00:14:27;101281.81;;;16.81;100.00
42111;BME280;27766;52.174;5.456;2022-08-19T00:16:56;101293.16;;;16.80;100.00
42111;BME280;27766;52.174;5.456;2022-08-19T00:19:24;101287.91;;;16.76;100.00
42111;BME280;27766;52.174;5.456;2022-08-19T00:21:53;101282.69;;;16.70;100.00
42111;BME280;27766;52.174;5.456;2022-08-19T00:24:23;101289.66;;;16.71;100.00
42111;BME280;27766;52.174;5.456;2022-08-19T00:26:51;101286.16;;;16.71;100.00
42111;BME280;27766;52.174;5.456;2022-08-19T00:29:28;101275.72;;;16.71;100.00
42111;BME280;27766;52.174;5.456;2022-08-19T00:31:57;101278.34;;;16.69;100.00
42111;BME280;27766;52.174;5.456;2022-08-19T00:34:26;101278.31;;;16.65;100.00
42111;BME280;27766;52.174;5.456;2022-08-19T00:36:57;101280.09;;;16.64;100.00
42111;BME280;27766;52.174;5.456;2022-08-19T00:39:26;101283.56;;;16.63;100.00
42111;BME280;27766;52.174;5.456;2022-08-19T00:41:53;101274.00;;;16.65;100.00
42111;BME280;27766;52.174;5.456;2022-08-19T00:44:24;101262.66;;;16.63;100.00
42111;BME280;27766;52.174;5.456;2022-08-19T00:46:55;101272.25;;;16.64;100.00
42111;BME280;27766;52.174;5.456;2022-08-19T00:49:36;101263.50;;;16.59;100.00
42111;BME280;27766;52.174;5.456;2022-08-19T00:52:08;101274.84;;;16.56;100.00
42111;BME280;27766;52.174;5.456;2022-08-19T00:54:40;101271.34;;;16.53;100.00
42111;BME280;27766;52.174;5.456;2022-08-19T00:57:10;101273.09;;;16.49;100.00
42111;BME280;27766;52.174;5.456;2022-08-19T00:59:40;101270.50;;;16.46;100.00
42111;BME280;27766;52.174;5.456;2022-08-19T01:02:30;101266.16;;;16.43;100.00
42111;BME280;27766;52.174;5.456;2022-08-19T01:05:00;101260.91;;;16.36;100.00
42111;BME280;27766;52.174;5.456;2022-08-19T01:07:28;101264.41;;;16.33;100.00
42111;BME280;27766;52.174;5.456;2022-08-19T01:10:06;101272.22;;;16.39;100.00
42111;BME280;27766;52.174;5.456;2022-08-19T01:12:34;101274.84;;;16.39;100.00
42111;BME280;27766;52.174;5.456;2022-08-19T01:15:03;101273.09;;;16.37;100.00
42111;BME280;27766;52.174;5.456;2022-08-19T01:17:31;101275.69;;;16.34;100.00
42111;BME280;27766;52.174;5.456;2022-08-19T01:20:01;101270.47;;;16.29;100.00
42111;BME280;27766;52.174;5.456;2022-08-19T01:22:36;101268.75;;;16.29;100.00
42111;BME280;27766;52.174;5.456;2022-08-19T01:25:06;101267.00;;;16.28;100.00
42111;BME280;27766;52.174;5.456;2022-08-19T01:27:43;101272.22;;;16.30;100.00
42111;BME280;27766;52.174;5.456;2022-08-19T01:30:15;101273.97;;;16.33;100.00
42111;BME280;27766;52.174;5.456;2022-08-19T01:32:44;101268.72;;;16.33;100.00
42111;BME280;27766;52.174;5.456;2022-08-19T01:35:12;101266.13;;;16.31;100.00
42111;BME280;27766;52.174;5.456;2022-08-19T01:40:16;101273.97;;;16.34;100.00
42111;BME280;27766;52.174;5.456;2022-08-19T01:42:44;101267.00;;;16.33;100.00
42111;BME280;27766;52.174;5.456;2022-08-19T01:45:11;101273.09;;;16.30;100.00
42111;BME280;27766;52.174;5.456;2022-08-19T01:47:38;101269.59;;;16.25;100.00
42111;BME280;27766;52.174;5.456;2022-08-19T01:50:07;101271.34;;;16.23;100.00
42111;BME280;27766;52.174;5.456;2022-08-19T01:52:36;101273.94;;;16.22;100.00
42111;BME280;27766;52.174;5.456;2022-08-19T01:55:05;101267.88;;;16.21;100.00
42111;BME280;27766;52.174;5.456;2022-08-19T01:57:33;101265.25;;;16.23;100.00
42111;BME280;27766;52.174;5.456;2022-08-19T02:00:00;101273.97;;;16.25;100.00
42111;BME280;27766;52.174;5.456;2022-08-19T02:02:30;101279.19;;;16.20;100.00
42111;BME280;27766;52.174;5.456;2022-08-19T02:04:57;101280.94;;;16.20;100.00
42111;BME280;27766;52.174;5.456;2022-08-19T02:07:25;101283.53;;;16.21;100.00
42111;BME280;27766;52.174;5.456;2022-08-19T02:09:53;101274.81;;;16.19;100.00
42111;BME280;27766;52.174;5.456;2022-08-19T02:12:22;101280.88;;;16.13;100.00
42111;BME280;27766;52.174;5.456;2022-08-19T02:14:52;101279.16;;;16.09;100.00
42111;BME280;27766;52.174;5.456;2022-08-19T02:17:19;101271.34;;;16.08;100.00
42111;BME280;27766;52.174;5.456;2022-08-19T02:19:48;101286.13;;;16.04;100.00
42111;BME280;27766;52.174;5.456;2022-08-19T02:22:16;101274.78;;;16.01;100.00
42111;BME280;27766;52.174;5.456;2022-08-19T02:24:44;101273.91;;;15.97;100.00
42111;BME280;27766;52.174;5.456;2022-08-19T02:27:13;101274.75;;;15.94;100.00
42111;BME280;27766;52.174;5.456;2022-08-19T02:29:40;101269.53;;;15.91;100.00
42111;BME280;27766;52.174;5.456;2022-08-19T02:32:08;101289.53;;;15.89;100.00
42111;BME280;27766;52.174;5.456;2022-08-19T02:34:35;101277.34;;;15.87;100.00
42111;BME280;27766;52.174;5.456;2022-08-19T02:37:02;101284.31;;;15.88;100.00
42111;BME280;27766;52.174;5.456;2022-08-19T02:39:30;101289.53;;;15.85;100.00
42111;BME280;27766;52.174;5.456;2022-08-19T02:41:57;101290.38;;;15.83;100.00
42111;BME280;27766;52.174;5.456;2022-08-19T02:44:26;101294.75;;;15.85;100.00
42111;BME280;27766;52.174;5.456;2022-08-19T02:46:58;101280.75;;;15.76;100.00
42111;BME280;27766;52.174;5.456;2022-08-19T02:49:26;101282.50;;;15.77;100.00
42111;BME280;27766;52.174;5.456;2022-08-19T02:51:53;101291.19;;;15.76;100.00
42111;BME280;27766;52.174;5.456;2022-08-19T02:54:22;101285.13;;;15.74;100.00
42111;BME280;27766;52.174;5.456;2022-08-19T02:56:49;101282.50;;;15.70;100.00
42111;BME280;27766;52.174;5.456;2022-08-19T02:59:16;101292.94;;;15.71;100.00
42111;BME280;27766;52.174;5.456;2022-08-19T03:01:49;101301.59;;;15.67;100.00
42111;BME280;27766;52.174;5.456;2022-08-19T03:04:16;101287.66;;;15.62;100.00
42111;BME280;27766;52.174;5.456;2022-08-19T03:06:46;101298.13;;;15.65;100.00
42111;BME280;27766;52.174;5.456;2022-08-19T03:09:14;101299.00;;;15.62;100.00
42111;BME280;27766;52.174;5.456;2022-08-19T03:11:42;101298.09;;;15.57;100.00
42111;BME280;27766;52.174;5.456;2022-08-19T03:14:10;101297.22;;;15.58;100.00
42111;BME280;27766;52.174;5.456;2022-08-19T03:16:46;101292.88;;;15.57;100.00
42111;BME280;27766;52.174;5.456;2022-08-19T03:19:16;101286.78;;;15.58;100.00
42111;BME280;27766;52.174;5.456;2022-08-19T03:21:44;101283.31;;;15.59;100.00
42111;BME280;27766;52.174;5.456;2022-08-19T03:24:13;101284.19;;;15.57;100.00
42111;BME280;27766;52.174;5.456;2022-08-19T03:26:43;101284.16;;;15.60;100.00
42111;BME280;27766;52.174;5.456;2022-08-19T03:29:14;101282.44;;;15.57;100.00
42111;BME280;27766;52.174;5.456;2022-08-19T03:31:55;101272.03;;;15.59;100.00
42111;BME280;27766;52.174;5.456;2022-08-19T03:34:26;101269.38;;;15.57;100.00
42111;BME280;27766;52.174;5.456;2022-08-19T03:36:56;101270.28;;;15.59;100.00
42111;BME280;27766;52.174;5.456;2022-08-19T03:39:25;101267.66;;;15.58;100.00
42111;BME280;27766;52.174;5.456;2022-08-19T03:41:54;101269.34;;;15.52;100.00
42111;BME280;27766;52.174;5.456;2022-08-19T03:44:46;101287.59;;;15.46;100.00
42111;BME280;27766;52.174;5.456;2022-08-19T03:47:14;101287.59;;;15.43;100.00
42111;BME280;27766;52.174;5.456;2022-08-19T03:49:42;101284.97;;;15.40;100.00
42111;BME280;27766;52.174;5.456;2022-08-19T03:52:10;101284.06;;;15.38;100.00
42111;BME280;27766;52.174;5.456;2022-08-19T03:54:37;101290.22;;;15.45;100.00
42111;BME280;27766;52.174;5.456;2022-08-19T03:57:05;101272.81;;;15.44;100.00
42111;BME280;27766;52.174;5.456;2022-08-19T03:59:35;101277.16;;;15.43;100.00
42111;BME280;27766;52.174;5.456;2022-08-19T04:02:07;101270.19;;;15.42;100.00
42111;BME280;27766;52.174;5.456;2022-08-19T04:04:41;101271.94;;;15.40;100.00
42111;BME280;27766;52.174;5.456;2022-08-19T04:07:11;101290.19;;;15.39;100.00
42111;BME280;27766;52.174;5.456;2022-08-19T04:09:40;101285.81;;;15.36;100.00
42111;BME280;27766;52.174;5.456;2022-08-19T04:12:08;101271.03;;;15.35;100.00
42111;BME280;27766;52.174;5.456;2022-08-19T04:14:35;101254.50;;;15.33;100.00
42111;BME280;27766;52.174;5.456;2022-08-19T04:17:03;101261.47;;;15.37;100.00
42111;BME280;27766;52.174;5.456;2022-08-19T04:19:33;101244.97;;;15.35;100.00
42111;BME280;27766;52.174;5.456;2022-08-19T04:22:02;101239.72;;;15.33;100.00
42111;BME280;27766;52.174;5.456;2022-08-19T04:24:30;101248.44;;;15.40;100.00
42111;BME280;27766;52.174;5.456;2022-08-19T04:26:59;101258.84;;;15.34;100.00
42111;BME280;27766;52.174;5.456;2022-08-19T04:29:27;101255.34;;;15.24;100.00
42111;BME280;27766;52.174;5.456;2022-08-19T04:31:57;101258.81;;;15.23;100.00
42111;BME280;27766;52.174;5.456;2022-08-19T04:34:34;101261.41;;;15.25;100.00
42111;BME280;27766;52.174;5.456;2022-08-19T04:37:22;101259.66;;;15.24;100.00
42111;BME280;27766;52.174;5.456;2022-08-19T04:39:49;101262.31;;;15.28;100.00
42111;BME280;27766;52.174;5.456;2022-08-19T04:42:35;101266.66;;;15.28;100.00
42111;BME280;27766;52.174;5.456;2022-08-19T04:45:07;101258.81;;;15.25;100.00
42111;BME280;27766;52.174;5.456;2022-08-19T04:47:40;101262.28;;;15.21;100.00
42111;BME280;27766;52.174;5.456;2022-08-19T04:50:17;101252.69;;;15.13;100.00
42111;BME280;27766;52.174;5.456;2022-08-19T04:52:45;101250.91;;;15.09;100.00
42111;BME280;27766;52.174;5.456;2022-08-19T04:55:12;101258.69;;;15.04;100.00
42111;BME280;27766;52.174;5.456;2022-08-19T04:57:40;101267.38;;;15.00;100.00
42111;BME280;27766;52.174;5.456;2022-08-19T05:00:08;101267.31;;;14.96;100.00
42111;BME280;27766;52.174;5.456;2022-08-19T05:02:36;101253.38;;;14.87;100.00
42111;BME280;27766;52.174;5.456;2022-08-19T05:05:04;101265.53;;;14.88;100.00
42111;BME280;27766;52.174;5.456;2022-08-19T05:07:33;101241.13;;;14.77;100.00
42111;BME280;27766;52.174;5.456;2022-08-19T05:10:00;101265.47;;;14.81;100.00
42111;BME280;27766;52.174;5.456;2022-08-19T05:12:28;101266.31;;;14.78;100.00
42111;BME280;27766;52.174;5.456;2022-08-19T05:14:58;101278.50;;;14.81;100.00
42111;BME280;27766;52.174;5.456;2022-08-19T05:17:27;101282.84;;;14.83;100.00
42111;BME280;27766;52.174;5.456;2022-08-19T05:20:01;101280.25;;;14.80;100.00
42111;BME280;27766;52.174;5.456;2022-08-19T05:22:48;101274.16;;;14.80;100.00
42111;BME280;27766;52.174;5.456;2022-08-19T05:25:17;101282.91;;;14.85;100.00
42111;BME280;27766;52.174;5.456;2022-08-19T05:27:46;101278.53;;;14.85;100.00
42111;BME280;27766;52.174;5.456;2022-08-19T05:30:14;101275.97;;;14.92;100.00
42111;BME280;27766;52.174;5.456;2022-08-19T05:32:42;101273.38;;;14.88;100.00
42111;BME280;27766;52.174;5.456;2022-08-19T05:35:10;101279.53;;;15.01;100.00
42111;BME280;27766;52.174;5.456;2022-08-19T05:37:38;101271.72;;;15.03;100.00
42111;BME280;27766;52.174;5.456;2022-08-19T05:40:08;101289.19;;;15.16;100.00
42111;BME280;27766;52.174;5.456;2022-08-19T05:42:36;101279.66;;;15.25;100.00
42111;BME280;27766;52.174;5.456;2022-08-19T05:45:04;101283.19;;;15.33;100.00
42111;BME280;27766;52.174;5.456;2022-08-19T05:47:32;101280.59;;;15.39;100.00
42111;BME280;27766;52.174;5.456;2022-08-19T05:49:59;101286.72;;;15.49;100.00
42111;BME280;27766;52.174;5.456;2022-08-19T05:52:31;101273.72;;;15.54;100.00
42111;BME280;27766;52.174;5.456;2022-08-19T05:54:59;101268.53;;;15.63;100.00
42111;BME280;27766;52.174;5.456;2022-08-19T05:57:26;101273.81;;;15.77;100.00
42111;BME280;27766;52.174;5.456;2022-08-19T05:59:57;101266.03;;;15.83;100.00
42111;BME280;27766;52.174;5.456;2022-08-19T06:02:28;101273.03;;;15.93;100.00
42111;BME280;27766;52.174;5.456;2022-08-19T06:04:57;101269.56;;;15.97;100.00
42111;BME280;27766;52.174;5.456;2022-08-19T06:07:25;101272.19;;;16.04;100.00
42111;BME280;27766;52.174;5.456;2022-08-19T06:09:52;101277.41;;;16.08;100.00
42111;BME280;27766;52.174;5.456;2022-08-19T06:12:31;101280.03;;;16.14;100.00
42111;BME280;27766;52.174;5.456;2022-08-19T06:15:05;101273.94;;;16.22;100.00
42111;BME280;27766;52.174;5.456;2022-08-19T06:17:33;101280.94;;;16.30;100.00
42111;BME280;27766;52.174;5.456;2022-08-19T06:20:07;101282.69;;;16.42;100.00
42111;BME280;27766;52.174;5.456;2022-08-19T06:22:42;101279.22;;;16.54;100.00
42111;BME280;27766;52.174;5.456;2022-08-19T06:25:12;101275.75;;;16.66;100.00
42111;BME280;27766;52.174;5.456;2022-08-19T06:27:41;101275.72;;;16.78;100.00
42111;BME280;27766;52.174;5.456;2022-08-19T06:30:29;101268.75;;;16.93;100.00
42111;BME280;27766;52.174;5.456;2022-08-19T06:32:56;101270.47;;;17.06;100.00
42111;BME280;27766;52.174;5.456;2022-08-19T06:35:23;101273.06;;;17.17;100.00
42111;BME280;27766;52.174;5.456;2022-08-19T06:37:51;101262.63;;;17.19;100.00
42111;BME280;27766;52.174;5.456;2022-08-19T06:40:19;101286.97;;;17.36;100.00
42111;BME280;27766;52.174;5.456;2022-08-19T06:42:46;101281.72;;;17.41;100.00
42111;BME280;27766;52.174;5.456;2022-08-19T06:45:22;101279.94;;;17.49;100.00
42111;BME280;27766;52.174;5.456;2022-08-19T06:47:52;101275.53;;;17.59;100.00
42111;BME280;27766;52.174;5.456;2022-08-19T06:50:23;101282.47;;;17.71;100.00
42111;BME280;27766;52.174;5.456;2022-08-19T06:52:52;101273.72;;;17.78;100.00
42111;BME280;27766;52.174;5.456;2022-08-19T06:55:22;101281.53;;;17.89;100.00
42111;BME280;27766;52.174;5.456;2022-08-19T06:57:50;101277.13;;;17.97;100.00
42111;BME280;27766;52.174;5.456;2022-08-19T07:00:21;101281.44;;;18.11;100.00
42111;BME280;27766;52.174;5.456;2022-08-19T07:02:49;101278.78;;;18.14;100.00
42111;BME280;27766;52.174;5.456;2022-08-19T07:05:25;101275.25;;;18.23;100.00
42111;BME280;27766;52.174;5.456;2022-08-19T07:07:52;101283.06;;;18.27;100.00
42111;BME280;27766;52.174;5.456;2022-08-19T07:10:23;101290.88;;;18.32;100.00
42111;BME280;27766;52.174;5.456;2022-08-19T07:12:52;101287.34;;;18.38;100.00
42111;BME280;27766;52.174;5.456;2022-08-19T07:15:22;101288.22;;;18.37;100.00
42111;BME280;27766;52.174;5.456;2022-08-19T07:17:49;101290.84;;;18.40;100.00
42111;BME280;27766;52.174;5.456;2022-08-19T07:20:19;101288.19;;;18.44;100.00
42111;BME280;27766;52.174;5.456;2022-08-19T07:22:55;101292.53;;;18.47;100.00
42111;BME280;27766;52.174;5.456;2022-08-19T07:25:22;101295.13;;;18.50;100.00
42111;BME280;27766;52.174;5.456;2022-08-19T07:27:59;101293.31;;;18.57;100.00
42111;BME280;27766;52.174;5.456;2022-08-19T07:30:27;101295.06;;;18.61;100.00
42111;BME280;27766;52.174;5.456;2022-08-19T07:32:57;101294.16;;;18.60;100.00
42111;BME280;27766;52.174;5.456;2022-08-19T07:35:29;101288.16;;;18.47;100.00
42111;BME280;27766;52.174;5.456;2022-08-19T07:37:59;101301.25;;;18.49;100.00
42111;BME280;27766;52.174;5.456;2022-08-19T07:40:32;101303.78;;;18.58;100.00
42111;BME280;27766;52.174;5.456;2022-08-19T07:42:59;101302.03;;;18.60;100.00
42111;BME280;27766;52.174;5.456;2022-08-19T07:45:26;101302.84;;;18.69;100.00
42111;BME280;27766;52.174;5.456;2022-08-19T07:47:56;101308.97;;;18.69;100.00
42111;BME280;27766;52.174;5.456;2022-08-19T07:50:25;101303.69;;;18.71;100.00
42111;BME280;27766;52.174;5.456;2022-08-19T07:52:52;101318.53;;;18.73;100.00
42111;BME280;27766;52.174;5.456;2022-08-19T07:55:25;101315.13;;;18.60;100.00
42111;BME280;27766;52.174;5.456;2022-08-19T07:58:09;101294.44;;;18.23;100.00
42111;BME280;27766;52.174;5.456;2022-08-19T08:00:37;101309.22;;;18.33;100.00
42111;BME280;27766;52.174;5.456;2022-08-19T08:03:04;101311.03;;;18.25;100.00
42111;BME280;27766;52.174;5.456;2022-08-19T08:05:32;101324.94;;;18.35;100.00
42111;BME280;27766;52.174;5.456;2022-08-19T08:08:20;101327.47;;;18.49;100.00
42111;BME280;27766;52.174;5.456;2022-08-19T08:11:17;101329.09;;;18.62;100.00
42111;BME280;27766;52.174;5.456;2022-08-19T08:13:46;101331.69;;;18.69;100.00
42111;BME280;27766;52.174;5.456;2022-08-19T08:16:31;101337.72;;;18.78;100.00
42111;BME280;27766;52.174;5.456;2022-08-19T08:19:00;101332.41;;;18.86;100.00
42111;BME280;27766;52.174;5.456;2022-08-19T08:21:27;101333.22;;;18.96;100.00
42111;BME280;27766;52.174;5.456;2022-08-19T08:23:55;101338.41;;;19.04;100.00
42111;BME280;27766;52.174;5.456;2022-08-19T08:26:24;101342.72;;;19.11;100.00
42111;BME280;27766;52.174;5.456;2022-08-19T08:28:53;101345.25;;;19.19;100.00
42111;BME280;27766;52.174;5.456;2022-08-19T08:31:22;101350.41;;;19.29;100.00
42111;BME280;27766;52.174;5.456;2022-08-19T08:33:51;101352.06;;;19.40;100.00
42111;BME280;27766;52.174;5.456;2022-08-19T08:36:19;101359.78;;;19.52;100.00
42111;BME280;27766;52.174;5.456;2022-08-19T08:38:46;101367.47;;;19.71;100.00
42111;BME280;27766;52.174;5.456;2022-08-19T08:41:34;101372.72;;;19.71;100.00
42111;BME280;27766;52.174;5.456;2022-08-19T08:44:04;101370.03;;;19.74;100.00
42111;BME280;27766;52.174;5.456;2022-08-19T08:46:43;101370.88;;;19.79;100.00
42111;BME280;27766;52.174;5.456;2022-08-19T08:52:28;101378.69;;;19.82;100.00
42111;BME280;27766;52.174;5.456;2022-08-19T08:55:12;101375.19;;;19.83;100.00
42111;BME280;27766;52.174;5.456;2022-08-19T09:00:24;101366.97;;;20.13;100.00
42111;BME280;27766;52.174;5.456;2022-08-19T09:02:54;101354.72;;;20.12;100.00
42111;BME280;27766;52.174;5.456;2022-08-19T09:05:26;101368.44;;;20.34;100.00
42111;BME280;27766;52.174;5.456;2022-08-19T09:08:13;101363.09;;;20.38;100.00
42111;BME280;27766;52.174;5.456;2022-08-19T09:10:49;101356.06;;;20.40;100.00
42111;BME280;27766;52.174;5.456;2022-08-19T09:13:27;101370.84;;;20.49;100.00
42111;BME280;27766;52.174;5.456;2022-08-19T09:16:15;101367.31;;;20.50;100.00
42111;BME280;27766;52.174;5.456;2022-08-19T09:18:49;101357.47;;;20.63;100.00
42111;BME280;27766;52.174;5.456;2022-08-19T09:21:22;101363.41;;;20.78;100.00
42111;BME280;27766;52.174;5.456;2022-08-19T09:24:02;101367.41;;;21.00;100.00
42111;BME280;27766;52.174;5.456;2022-08-19T09:26:31;101333.13;;;21.05;100.00
42111;BME280;27766;52.174;5.456;2022-08-19T09:29:14;101375.97;;;21.15;100.00
42111;BME280;27766;52.174;5.456;2022-08-19T09:31:43;101361.84;;;21.19;100.00
42111;BME280;27766;52.174;5.456;2022-08-19T09:34:11;101358.75;;;21.42;100.00
42111;BME280;27766;52.174;5.456;2022-08-19T09:36:49;101367.13;;;21.66;100.00
42111;BME280;27766;52.174;5.456;2022-08-19T09:39:22;101372.03;;;21.85;100.00
42111;BME280;27766;52.174;5.456;2022-08-19T09:41:49;101372.69;;;21.94;100.00
42111;BME280;27766;52.174;5.456;2022-08-19T09:44:17;101377.59;;;21.69;100.00
42111;BME280;27766;52.174;5.456;2022-08-19T09:46:48;101367.06;;;21.69;100.00
42111;BME280;27766;52.174;5.456;2022-08-19T09:49:18;101372.44;;;21.64;100.00
42111;BME280;27766;52.174;5.456;2022-08-19T09:51:49;101372.88;;;21.85;100.00
42111;BME280;27766;52.174;5.456;2022-08-19T09:54:18;101362.91;;;22.01;100.00
42111;BME280;27766;52.174;5.456;2022-08-19T09:57:17;101357.91;;;22.28;100.00
42111;BME280;27766;52.174;5.456;2022-08-19T09:59:44;101364.03;;;22.30;100.00
42111;BME280;27766;52.174;5.456;2022-08-19T10:02:12;101376.72;;;22.52;100.00
42111;BME280;27766;52.174;5.456;2022-08-19T10:04:48;101369.06;;;22.79;100.00
42111;BME280;27766;52.174;5.456;2022-08-19T10:07:34;101362.47;;;22.95;100.00
42111;BME280;27766;52.174;5.456;2022-08-19T10:10:06;101373.75;;;23.02;100.00
42111;BME280;27766;52.174;5.456;2022-08-19T10:12:34;101369.97;;;22.77;100.00
42111;BME280;27766;52.174;5.456;2022-08-19T10:15:01;101369.81;;;22.48;100.00
42111;BME280;27766;52.174;5.456;2022-08-19T10:17:31;101367.03;;;22.54;100.00
42111;BME280;27766;52.174;5.456;2022-08-19T10:20:03;101368.13;;;22.45;100.00
42111;BME280;27766;52.174;5.456;2022-08-19T10:22:31;101369.03;;;22.42;100.00
42111;BME280;27766;52.174;5.456;2022-08-19T10:25:00;101377.97;;;22.35;100.00
42111;BME280;27766;52.174;5.456;2022-08-19T10:27:27;101365.84;;;22.26;100.00
42111;BME280;27766;52.174;5.456;2022-08-19T10:30:01;101376.78;;;22.50;100.00
42111;BME280;27766;52.174;5.456;2022-08-19T10:32:31;101350.31;;;22.53;100.00
42111;BME280;27766;52.174;5.456;2022-08-19T10:35:01;101367.84;;;22.92;100.00
42111;BME280;27766;52.174;5.456;2022-08-19T10:37:32;101372.81;;;23.04;100.00
42111;BME280;27766;52.174;5.456;2022-08-19T10:40:01;101367.66;;;23.00;100.00
42111;BME280;27766;52.174;5.456;2022-08-19T10:42:29;101362.06;;;22.76;100.00
42111;BME280;27766;52.174;5.456;2022-08-19T10:44:58;101362.91;;;22.80;100.00
42111;BME280;27766;52.174;5.456;2022-08-19T10:47:27;101368.88;;;22.86;100.00
42111;BME280;27766;52.174;5.456;2022-08-19T10:49:57;101363.53;;;22.88;100.00
42111;BME280;27766;52.174;5.456;2022-08-19T10:52:46;101364.22;;;22.96;100.00
42111;BME280;27766;52.174;5.456;2022-08-19T10:55:18;101361.28;;;23.08;100.00
42111;BME280;27766;52.174;5.456;2022-08-19T10:58:10;101360.44;;;23.06;100.00
42111;BME280;27766;52.174;5.456;2022-08-19T11:00:38;101350.72;;;23.08;100.00
42111;BME280;27766;52.174;5.456;2022-08-19T11:03:05;101339.16;;;23.13;100.00
42111;BME280;27766;52.174;5.456;2022-08-19T11:05:35;101335.56;;;23.17;100.00
42111;BME280;27766;52.174;5.456;2022-08-19T11:08:07;101346.34;;;23.07;100.00
42111;BME280;27766;52.174;5.456;2022-08-19T11:10:51;101341.31;;;22.98;100.00
42111;BME280;27766;52.174;5.456;2022-08-19T11:13:24;101349.81;;;23.10;100.00
42111;BME280;27766;52.174;5.456;2022-08-19T11:16:06;101339.78;;;23.24;100.00
42111;BME280;27766;52.174;5.456;2022-08-19T11:18:40;101338.53;;;23.37;100.00
42111;BME280;27766;52.174;5.456;2022-08-19T11:21:32;101342.19;;;23.32;100.00
42111;BME280;27766;52.174;5.456;2022-08-19T11:24:03;101338.28;;;23.47;100.00
42111;BME280;27766;52.174;5.456;2022-08-19T11:26:33;101335.84;;;23.70;100.00
42111;BME280;27766;52.174;5.456;2022-08-19T11:29:02;101335.66;;;23.45;100.00
42111;BME280;27766;52.174;5.456;2022-08-19T11:31:32;101332.69;;;23.58;100.00
42111;BME280;27766;52.174;5.456;2022-08-19T11:34:02;101328.91;;;23.66;100.00
42111;BME280;27766;52.174;5.456;2022-08-19T11:36:31;101331.69;;;23.93;100.00
42111;BME280;27766;52.174;5.456;2022-08-19T11:39:00;101319.50;;;23.87;100.00
42111;BME280;27766;52.174;5.456;2022-08-19T11:41:27;101317.63;;;23.91;100.00
42111;BME280;27766;52.174;5.456;2022-08-19T11:43:57;101313.63;;;23.76;100.00
42111;BME280;27766;52.174;5.456;2022-08-19T11:46:26;101314.91;;;23.93;100.00
42111;BME280;27766;52.174;5.456;2022-08-19T11:48:57;101321.59;;;24.06;100.00
42111;BME280;27766;52.174;5.456;2022-08-19T11:51:29;101320.94;;;24.28;100.00
42111;BME280;27766;52.174;5.456;2022-08-19T11:53:58;101322.31;;;24.40;100.00
42111;BME280;27766;52.174;5.456;2022-08-19T11:56:27;101315.28;;;24.65;100.00
42111;BME280;27766;52.174;5.456;2022-08-19T11:58:56;101324.84;;;24.71;100.00
42111;BME280;27766;52.174;5.456;2022-08-19T12:01:26;101321.38;;;24.69;100.00
42111;BME280;27766;52.174;5.456;2022-08-19T12:03:56;101328.03;;;24.54;100.00
42111;BME280;27766;52.174;5.456;2022-08-19T12:06:27;101322.31;;;24.40;100.00
42111;BME280;27766;52.174;5.456;2022-08-19T12:09:01;101319.63;;;24.13;100.00
42111;BME280;27766;52.174;5.456;2022-08-19T12:11:29;101326.28;;;23.96;100.00
42111;BME280;27766;52.174;5.456;2022-08-19T12:14:00;101317.13;;;23.78;100.00
42111;BME280;27766;52.174;5.456;2022-08-19T12:16:30;101335.94;;;23.67;100.00
42111;BME280;27766;52.174;5.456;2022-08-19T12:19:04;101333.94;;;23.76;100.00
42111;BME280;27766;52.174;5.456;2022-08-19T12:21:33;101321.28;;;23.55;100.00
42111;BME280;27766;52.174;5.456;2022-08-19T12:24:02;101319.66;;;23.51;100.00
42111;BME280;27766;52.174;5.456;2022-08-19T12:26:29;101331.34;;;23.43;100.00
42111;BME280;27766;52.174;5.456;2022-08-19T12:28:59;101333.56;;;23.27;100.00
42111;BME280;27766;52.174;5.456;2022-08-19T12:31:28;101322.88;;;22.97;100.00
42111;BME280;27766;52.174;5.456;2022-08-19T12:33:56;101339.97;;;22.82;100.00
42111;BME280;27766;52.174;5.456;2022-08-19T12:36:24;101329.41;;;22.45;100.00
42111;BME280;27766;52.174;5.456;2022-08-19T12:38:52;101339.59;;;21.81;100.00
42111;BME280;27766;52.174;5.456;2022-08-19T12:41:20;101338.75;;;21.33;100.00
42111;BME280;27766;52.174;5.456;2022-08-19T12:43:49;101335.91;;;20.96;100.00
42111;BME280;27766;52.174;5.456;2022-08-19T12:46:19;101328.53;;;20.65;100.00
42111;BME280;27766;52.174;5.456;2022-08-19T12:48:49;101337.50;;;20.51;100.00
42111;BME280;27766;52.174;5.456;2022-08-19T12:51:21;101341.19;;;20.41;100.00
42111;BME280;27766;52.174;5.456;2022-08-19T12:53:49;101336.09;;;20.29;100.00
42111;BME280;27766;52.174;5.456;2022-08-19T12:56:16;101324.81;;;20.20;100.00
42111;BME280;27766;52.174;5.456;2022-08-19T12:58:49;101335.34;;;20.19;100.00
42111;BME280;27766;52.174;5.456;2022-08-19T13:01:19;101331.09;;;20.10;100.00
42111;BME280;27766;52.174;5.456;2022-08-19T13:03:49;101329.38;;;20.09;100.00
42111;BME280;27766;52.174;5.456;2022-08-19T13:06:17;101329.25;;;20.18;100.00
42111;BME280;27766;52.174;5.456;2022-08-19T13:08:46;101323.00;;;20.24;100.00